sensor_id;sensor_type;location;lat;lon;timestamp;temperature;humidity
22167;DHT22;11249;52.468;13.776;2022-09-13T00:01:01;13.10;99.90
22167;DHT22;11249;52.468;13.776;2022-09-13T00:03:28;13.10;99.90
22167;DHT22;11249;52.468;13.776;2022-09-13T00:05:55;13.10;99.90
22167;DHT22;11249;52.468;13.776;2022-09-13T00:08:22;13.10;99.90
22167;DHT22;11249;52.468;13.776;2022-09-13T00:10:49;13.10;99.90
22167;DHT22;11249;52.468;13.776;2022-09-13T00:13:16;13.10;99.90
22167;DHT22;11249;52.468;13.776;2022-09-13T00:15:46;13.10;99.90
22167;DHT22;11249;52.468;13.776;2022-09-13T00:18:13;13.10;99.90
22167;DHT22;11249;52.468;13.776;2022-09-13T00:20:40;13.20;99.90
22167;DHT22;11249;52.468;13.776;2022-09-13T00:23:08;13.10;99.90
22167;DHT22;11249;52.468;13.776;2022-09-13T00:25:35;13.10;99.90
22167;DHT22;11249;52.468;13.776;2022-09-13T00:28:03;13.10;99.90
22167;DHT22;11249;52.468;13.776;2022-09-13T00:30:30;13.10;99.90
22167;DHT22;11249;52.468;13.776;2022-09-13T00:32:57;13.00;99.90
22167;DHT22;11249;52.468;13.776;2022-09-13T00:35:24;13.00;99.90
22167;DHT22;11249;52.468;13.776;2022-09-13T00:37:51;12.90;99.90
22167;DHT22;11249;52.468;13.776;2022-09-13T00:40:20;12.90;99.90
22167;DHT22;11249;52.468;13.776;2022-09-13T00:42:47;12.90;99.90
22167;DHT22;11249;52.468;13.776;2022-09-13T00:45:16;12.90;99.90
22167;DHT22;11249;52.468;13.776;2022-09-13T00:47:52;12.90;99.90
22167;DHT22;11249;52.468;13.776;2022-09-13T00:50:42;12.90;99.90
22167;DHT22;11249;52.468;13.776;2022-09-13T00:53:17;12.90;99.90
22167;DHT22;11249;52.468;13.776;2022-09-13T00:56:07;12.90;99.90
22167;DHT22;11249;52.468;13.776;2022-09-13T00:59:00;12.90;99.90
22167;DHT22;11249;52.468;13.776;2022-09-13T01:01:32;12.80;99.90
22167;DHT22;11249;52.468;13.776;2022-09-13T01:04:02;12.80;99.90
22167;DHT22;11249;52.468;13.776;2022-09-13T01:06:30;12.80;99.90
22167;DHT22;11249;52.468;13.776;2022-09-13T01:09:01;12.80;99.90
22167;DHT22;11249;52.468;13.776;2022-09-13T01:11:47;12.80;99.90
22167;DHT22;11249;52.468;13.776;2022-09-13T01:14:17;12.70;99.90
22167;DHT22;11249;52.468;13.776;2022-09-13T01:16:44;12.70;99.90
22167;DHT22;11249;52.468;13.776;2022-09-13T01:19:13;12.70;99.90
22167;DHT22;11249;52.468;13.776;2022-09-13T01:21:51;12.80;99.90
22167;DHT22;11249;52.468;13.776;2022-09-13T01:24:45;12.80;99.90
22167;DHT22;11249;52.468;13.776;2022-09-13T01:30:17;12.80;99.90
22167;DHT22;11249;52.468;13.776;2022-09-13T01:35:50;12.70;99.90
22167;DHT22;11249;52.468;13.776;2022-09-13T01:38:42;12.70;99.90
22167;DHT22;11249;52.468;13.776;2022-09-13T01:47:26;12.60;99.90
22167;DHT22;11249;52.468;13.776;2022-09-13T01:50:23;12.60;99.90
22167;DHT22;11249;52.468;13.776;2022-09-13T01:56:08;12.70;99.90
22167;DHT22;11249;52.468;13.776;2022-09-13T01:58:56;12.60;99.90
22167;DHT22;11249;52.468;13.776;2022-09-13T02:01:37;12.60;99.90
22167;DHT22;11249;52.468;13.776;2022-09-13T02:04:22;12.60;99.90
22167;DHT22;11249;52.468;13.776;2022-09-13T02:07:06;12.60;99.90
22167;DHT22;11249;52.468;13.776;2022-09-13T02:09:38;12.60;99.90
22167;DHT22;11249;52.468;13.776;2022-09-13T02:12:14;12.60;99.90
22167;DHT22;11249;52.468;13.776;2022-09-13T02:14:44;12.60;99.90
22167;DHT22;11249;52.468;13.776;2022-09-13T02:17:22;12.60;99.90
22167;DHT22;11249;52.468;13.776;2022-09-13T02:19:57;12.60;99.90
22167;DHT22;11249;52.468;13.776;2022-09-13T02:22:28;12.60;99.90
22167;DHT22;11249;52.468;13.776;2022-09-13T02:25:11;12.60;99.90
22167;DHT22;11249;52.468;13.776;2022-09-13T02:27:40;12.60;99.90
22167;DHT22;11249;52.468;13.776;2022-09-13T02:30:10;12.60;99.90
22167;DHT22;11249;52.468;13.776;2022-09-13T02:32:41;12.60;99.90
22167;DHT22;11249;52.468;13.776;2022-09-13T02:35:20;12.60;99.90
22167;DHT22;11249;52.468;13.776;2022-09-13T02:37:54;12.60;99.90
22167;DHT22;11249;52.468;13.776;2022-09-13T02:40:26;12.60;99.90
22167;DHT22;11249;52.468;13.776;2022-09-13T02:43:00;12.60;99.90
22167;DHT22;11249;52.468;13.776;2022-09-13T02:45:32;12.60;99.90
22167;DHT22;11249;52.468;13.776;2022-09-13T02:48:05;12.60;99.90
22167;DHT22;11249;52.468;13.776;2022-09-13T02:53:38;12.60;99.90
22167;DHT22;11249;52.468;13.776;2022-09-13T02:56:11;12.50;99.90
22167;DHT22;11249;52.468;13.776;2022-09-13T02:58:49;12.50;99.90
22167;DHT22;11249;52.468;13.776;2022-09-13T03:01:18;12.50;99.90
22167;DHT22;11249;52.468;13.776;2022-09-13T03:03:47;12.50;99.90
22167;DHT22;11249;52.468;13.776;2022-09-13T03:06:22;12.50;99.90
22167;DHT22;11249;52.468;13.776;2022-09-13T03:08:49;12.50;99.90
22167;DHT22;11249;52.468;13.776;2022-09-13T03:20:29;12.40;99.90
22167;DHT22;11249;52.468;13.776;2022-09-13T03:23:27;12.40;99.90
22167;DHT22;11249;52.468;13.776;2022-09-13T03:26:30;12.40;99.90
22167;DHT22;11249;52.468;13.776;2022-09-13T03:29:23;12.30;99.90
22167;DHT22;11249;52.468;13.776;2022-09-13T03:34:47;12.30;99.90
22167;DHT22;11249;52.468;13.776;2022-09-13T03:40:19;12.30;99.90
22167;DHT22;11249;52.468;13.776;2022-09-13T03:43:05;12.40;99.90
22167;DHT22;11249;52.468;13.776;2022-09-13T03:45:37;12.30;99.90
22167;DHT22;11249;52.468;13.776;2022-09-13T03:48:06;12.40;99.90
22167;DHT22;11249;52.468;13.776;2022-09-13T03:50:33;12.40;99.90
22167;DHT22;11249;52.468;13.776;2022-09-13T03:53:09;12.40;99.90
22167;DHT22;11249;52.468;13.776;2022-09-13T03:55:40;12.40;99.90
22167;DHT22;11249;52.468;13.776;2022-09-13T03:58:14;12.40;99.90
22167;DHT22;11249;52.468;13.776;2022-09-13T04:00:41;12.40;99.90
22167;DHT22;11249;52.468;13.776;2022-09-13T04:03:08;12.30;99.90
22167;DHT22;11249;52.468;13.776;2022-09-13T04:05:35;12.30;99.90
22167;DHT22;11249;52.468;13.776;2022-09-13T04:08:04;12.30;99.90
22167;DHT22;11249;52.468;13.776;2022-09-13T04:10:32;12.30;99.90
22167;DHT22;11249;52.468;13.776;2022-09-13T04:12:59;12.40;99.90
22167;DHT22;11249;52.468;13.776;2022-09-13T04:15:27;12.40;99.90
22167;DHT22;11249;52.468;13.776;2022-09-13T04:17:54;12.40;99.90
22167;DHT22;11249;52.468;13.776;2022-09-13T04:20:20;12.40;99.90
22167;DHT22;11249;52.468;13.776;2022-09-13T04:22:51;12.40;99.90
22167;DHT22;11249;52.468;13.776;2022-09-13T04:25:19;12.50;99.90
22167;DHT22;11249;52.468;13.776;2022-09-13T04:27:46;12.50;99.90
22167;DHT22;11249;52.468;13.776;2022-09-13T04:30:13;12.50;99.90
22167;DHT22;11249;52.468;13.776;2022-09-13T04:32:42;12.50;99.90
22167;DHT22;11249;52.468;13.776;2022-09-13T04:35:10;12.50;99.90
22167;DHT22;11249;52.468;13.776;2022-09-13T04:37:37;12.60;99.90
22167;DHT22;11249;52.468;13.776;2022-09-13T04:40:08;12.60;99.90
22167;DHT22;11249;52.468;13.776;2022-09-13T04:42:35;12.60;99.90
22167;DHT22;11249;52.468;13.776;2022-09-13T04:45:02;12.70;99.90
22167;DHT22;11249;52.468;13.776;2022-09-13T04:47:29;12.80;99.90
22167;DHT22;11249;52.468;13.776;2022-09-13T04:49:56;12.80;99.90
22167;DHT22;11249;52.468;13.776;2022-09-13T04:52:23;12.80;99.90
22167;DHT22;11249;52.468;13.776;2022-09-13T04:54:50;12.90;99.90
22167;DHT22;11249;52.468;13.776;2022-09-13T04:57:17;12.90;99.90
22167;DHT22;11249;52.468;13.776;2022-09-13T04:59:44;12.90;99.90
22167;DHT22;11249;52.468;13.776;2022-09-13T05:02:10;13.00;99.90
22167;DHT22;11249;52.468;13.776;2022-09-13T05:04:37;13.00;99.90
22167;DHT22;11249;52.468;13.776;2022-09-13T05:07:04;13.10;99.90
22167;DHT22;11249;52.468;13.776;2022-09-13T05:09:30;13.10;99.90
22167;DHT22;11249;52.468;13.776;2022-09-13T05:11:57;13.10;99.90
22167;DHT22;11249;52.468;13.776;2022-09-13T05:14:24;13.10;99.90
22167;DHT22;11249;52.468;13.776;2022-09-13T05:16:50;13.20;99.90
22167;DHT22;11249;52.468;13.776;2022-09-13T05:19:17;13.20;99.90
22167;DHT22;11249;52.468;13.776;2022-09-13T05:21:44;13.20;99.90
22167;DHT22;11249;52.468;13.776;2022-09-13T05:24:10;13.30;99.90
22167;DHT22;11249;52.468;13.776;2022-09-13T05:26:37;13.40;99.90
22167;DHT22;11249;52.468;13.776;2022-09-13T05:29:04;13.40;99.90
22167;DHT22;11249;52.468;13.776;2022-09-13T05:31:34;13.40;99.90
22167;DHT22;11249;52.468;13.776;2022-09-13T05:34:02;13.40;99.90
22167;DHT22;11249;52.468;13.776;2022-09-13T05:36:30;13.40;99.90
22167;DHT22;11249;52.468;13.776;2022-09-13T05:38:57;13.40;99.90
22167;DHT22;11249;52.468;13.776;2022-09-13T05:41:44;13.40;99.90
22167;DHT22;11249;52.468;13.776;2022-09-13T05:44:11;13.50;99.90
22167;DHT22;11249;52.468;13.776;2022-09-13T05:46:40;13.50;99.90
22167;DHT22;11249;52.468;13.776;2022-09-13T05:49:07;13.60;99.90
22167;DHT22;11249;52.468;13.776;2022-09-13T05:51:34;13.60;99.90
22167;DHT22;11249;52.468;13.776;2022-09-13T05:54:01;13.60;99.90
22167;DHT22;11249;52.468;13.776;2022-09-13T05:56:29;13.60;99.90
22167;DHT22;11249;52.468;13.776;2022-09-13T05:58:56;13.60;99.90
22167;DHT22;11249;52.468;13.776;2022-09-13T06:01:25;13.60;99.90
22167;DHT22;11249;52.468;13.776;2022-09-13T06:03:54;13.70;99.90
22167;DHT22;11249;52.468;13.776;2022-09-13T06:06:22;13.70;99.90
22167;DHT22;11249;52.468;13.776;2022-09-13T06:08:55;13.70;99.90
22167;DHT22;11249;52.468;13.776;2022-09-13T06:11:23;13.80;99.90
22167;DHT22;11249;52.468;13.776;2022-09-13T06:13:51;13.80;99.90
22167;DHT22;11249;52.468;13.776;2022-09-13T06:16:18;13.80;99.90
22167;DHT22;11249;52.468;13.776;2022-09-13T06:18:46;13.80;99.90
22167;DHT22;11249;52.468;13.776;2022-09-13T06:21:15;13.80;99.90
22167;DHT22;11249;52.468;13.776;2022-09-13T06:23:45;13.80;99.90
22167;DHT22;11249;52.468;13.776;2022-09-13T06:26:14;13.80;99.90
22167;DHT22;11249;52.468;13.776;2022-09-13T06:28:41;13.80;99.90
22167;DHT22;11249;52.468;13.776;2022-09-13T06:31:12;13.70;99.90
22167;DHT22;11249;52.468;13.776;2022-09-13T06:33:41;13.60;99.90
22167;DHT22;11249;52.468;13.776;2022-09-13T06:36:32;13.60;99.90
22167;DHT22;11249;52.468;13.776;2022-09-13T06:38:59;13.60;99.90
22167;DHT22;11249;52.468;13.776;2022-09-13T06:41:27;13.50;99.90
22167;DHT22;11249;52.468;13.776;2022-09-13T06:43:55;13.50;99.90
22167;DHT22;11249;52.468;13.776;2022-09-13T06:46:24;13.50;99.90
22167;DHT22;11249;52.468;13.776;2022-09-13T06:48:51;13.50;99.90
22167;DHT22;11249;52.468;13.776;2022-09-13T06:51:21;13.50;99.90
22167;DHT22;11249;52.468;13.776;2022-09-13T06:53:48;13.50;99.90
22167;DHT22;11249;52.468;13.776;2022-09-13T06:58:50;13.40;99.90
22167;DHT22;11249;52.468;13.776;2022-09-13T07:01:20;13.40;99.90
22167;DHT22;11249;52.468;13.776;2022-09-13T07:03:52;13.40;99.90
22167;DHT22;11249;52.468;13.776;2022-09-13T07:06:22;13.40;99.90
22167;DHT22;11249;52.468;13.776;2022-09-13T07:08:50;13.50;99.90
22167;DHT22;11249;52.468;13.776;2022-09-13T07:11:18;13.50;99.90
22167;DHT22;11249;52.468;13.776;2022-09-13T07:13:53;13.50;99.90
22167;DHT22;11249;52.468;13.776;2022-09-13T07:16:22;13.60;99.90
22167;DHT22;11249;52.468;13.776;2022-09-13T07:18:58;13.60;99.90
22167;DHT22;11249;52.468;13.776;2022-09-13T07:21:26;13.70;99.90
22167;DHT22;11249;52.468;13.776;2022-09-13T07:23:54;13.90;99.90
22167;DHT22;11249;52.468;13.776;2022-09-13T07:26:21;14.00;99.90
22167;DHT22;11249;52.468;13.776;2022-09-13T07:28:51;14.10;99.90
22167;DHT22;11249;52.468;13.776;2022-09-13T07:31:20;14.30;99.90
22167;DHT22;11249;52.468;13.776;2022-09-13T07:33:58;14.40;99.90
22167;DHT22;11249;52.468;13.776;2022-09-13T07:36:26;14.50;99.90
22167;DHT22;11249;52.468;13.776;2022-09-13T07:38:53;14.60;99.90
22167;DHT22;11249;52.468;13.776;2022-09-13T07:41:22;14.70;99.90
22167;DHT22;11249;52.468;13.776;2022-09-13T07:43:50;14.80;99.90
22167;DHT22;11249;52.468;13.776;2022-09-13T07:46:28;14.80;99.90
22167;DHT22;11249;52.468;13.776;2022-09-13T07:48:59;14.80;99.90
22167;DHT22;11249;52.468;13.776;2022-09-13T07:51:28;14.90;99.90
22167;DHT22;11249;52.468;13.776;2022-09-13T07:53:57;14.90;99.90
22167;DHT22;11249;52.468;13.776;2022-09-13T07:56:44;14.90;99.90
22167;DHT22;11249;52.468;13.776;2022-09-13T07:59:15;14.90;99.90
22167;DHT22;11249;52.468;13.776;2022-09-13T08:01:47;15.00;99.90
22167;DHT22;11249;52.468;13.776;2022-09-13T08:04:17;15.00;99.90
22167;DHT22;11249;52.468;13.776;2022-09-13T08:06:44;15.10;99.90
22167;DHT22;11249;52.468;13.776;2022-09-13T08:09:13;15.10;99.90
22167;DHT22;11249;52.468;13.776;2022-09-13T08:11:45;15.10;99.90
22167;DHT22;11249;52.468;13.776;2022-09-13T08:14:37;15.10;99.90
22167;DHT22;11249;52.468;13.776;2022-09-13T08:17:04;15.20;99.90
22167;DHT22;11249;52.468;13.776;2022-09-13T08:19:30;15.20;99.90
22167;DHT22;11249;52.468;13.776;2022-09-13T08:21:57;15.30;99.90
22167;DHT22;11249;52.468;13.776;2022-09-13T08:24:24;15.30;99.90
22167;DHT22;11249;52.468;13.776;2022-09-13T08:26:53;15.50;99.90
22167;DHT22;11249;52.468;13.776;2022-09-13T08:29:20;15.50;99.90
22167;DHT22;11249;52.468;13.776;2022-09-13T08:31:47;15.70;99.90
22167;DHT22;11249;52.468;13.776;2022-09-13T08:34:14;15.80;99.90
22167;DHT22;11249;52.468;13.776;2022-09-13T08:36:42;15.90;99.90
22167;DHT22;11249;52.468;13.776;2022-09-13T08:39:09;15.90;99.90
22167;DHT22;11249;52.468;13.776;2022-09-13T08:44:44;16.00;99.90
22167;DHT22;11249;52.468;13.776;2022-09-13T08:50:22;16.30;99.90
22167;DHT22;11249;52.468;13.776;2022-09-13T08:53:21;16.40;99.90
22167;DHT22;11249;52.468;13.776;2022-09-13T08:56:15;16.60;99.90
22167;DHT22;11249;52.468;13.776;2022-09-13T08:59:07;16.60;99.90
22167;DHT22;11249;52.468;13.776;2022-09-13T09:01:49;16.80;99.90
22167;DHT22;11249;52.468;13.776;2022-09-13T09:06:58;16.90;99.90
22167;DHT22;11249;52.468;13.776;2022-09-13T09:09:31;17.00;99.90
22167;DHT22;11249;52.468;13.776;2022-09-13T09:17:47;17.40;99.90
22167;DHT22;11249;52.468;13.776;2022-09-13T09:20:30;17.50;99.90
22167;DHT22;11249;52.468;13.776;2022-09-13T09:23:04;17.50;99.90
22167;DHT22;11249;52.468;13.776;2022-09-13T09:25:33;17.40;99.90
22167;DHT22;11249;52.468;13.776;2022-09-13T09:28:00;17.60;99.90
22167;DHT22;11249;52.468;13.776;2022-09-13T09:33:59;17.80;99.90
22167;DHT22;11249;52.468;13.776;2022-09-13T09:36:38;17.90;99.90
22167;DHT22;11249;52.468;13.776;2022-09-13T09:39:10;18.00;99.90
22167;DHT22;11249;52.468;13.776;2022-09-13T09:41:37;18.00;99.90
22167;DHT22;11249;52.468;13.776;2022-09-13T09:44:21;18.00;99.90
22167;DHT22;11249;52.468;13.776;2022-09-13T09:47:02;18.00;99.90
22167;DHT22;11249;52.468;13.776;2022-09-13T09:49:38;18.10;99.90
22167;DHT22;11249;52.468;13.776;2022-09-13T09:52:30;18.20;99.90
22167;DHT22;11249;52.468;13.776;2022-09-13T09:57:54;18.50;99.90
22167;DHT22;11249;52.468;13.776;2022-09-13T10:00:24;18.70;99.90
22167;DHT22;11249;52.468;13.776;2022-09-13T10:02:52;18.90;99.90
22167;DHT22;11249;52.468;13.776;2022-09-13T10:05:21;18.80;99.90
22167;DHT22;11249;52.468;13.776;2022-09-13T10:07:57;18.80;99.90
22167;DHT22;11249;52.468;13.776;2022-09-13T10:10:31;18.70;99.90
22167;DHT22;11249;52.468;13.776;2022-09-13T10:13:04;18.70;99.90
22167;DHT22;11249;52.468;13.776;2022-09-13T10:15:33;18.90;99.90
22167;DHT22;11249;52.468;13.776;2022-09-13T10:18:12;19.10;99.90
22167;DHT22;11249;52.468;13.776;2022-09-13T10:21:04;19.20;99.90
22167;DHT22;11249;52.468;13.776;2022-09-13T10:23:32;19.60;99.90
22167;DHT22;11249;52.468;13.776;2022-09-13T10:26:09;19.70;99.90
22167;DHT22;11249;52.468;13.776;2022-09-13T10:29:05;19.90;99.90
22167;DHT22;11249;52.468;13.776;2022-09-13T10:31:38;20.00;99.90
22167;DHT22;11249;52.468;13.776;2022-09-13T10:34:12;20.10;99.90
22167;DHT22;11249;52.468;13.776;2022-09-13T10:36:58;20.00;99.90
22167;DHT22;11249;52.468;13.776;2022-09-13T10:39:28;20.20;99.90
22167;DHT22;11249;52.468;13.776;2022-09-13T10:41:58;20.30;99.90
22167;DHT22;11249;52.468;13.776;2022-09-13T10:44:38;20.20;99.90
22167;DHT22;11249;52.468;13.776;2022-09-13T10:47:22;20.00;99.90
22167;DHT22;11249;52.468;13.776;2022-09-13T10:49:51;20.00;99.90
22167;DHT22;11249;52.468;13.776;2022-09-13T10:53:23;20.10;99.90
22167;DHT22;11249;52.468;13.776;2022-09-13T10:57:54;20.40;99.90
22167;DHT22;11249;52.468;13.776;2022-09-13T11:11:07;20.70;99.90
22167;DHT22;11249;52.468;13.776;2022-09-13T11:13:50;20.70;99.90
22167;DHT22;11249;52.468;13.776;2022-09-13T11:16:26;20.70;99.90
22167;DHT22;11249;52.468;13.776;2022-09-13T11:22:28;20.40;99.90
22167;DHT22;11249;52.468;13.776;2022-09-13T11:30:24;19.90;99.90
22167;DHT22;11249;52.468;13.776;2022-09-13T11:33:17;19.90;99.90
22167;DHT22;11249;52.468;13.776;2022-09-13T11:35:50;19.90;99.90
22167;DHT22;11249;52.468;13.776;2022-09-13T11:38:46;20.00;99.90
22167;DHT22;11249;52.468;13.776;2022-09-13T11:41:38;20.10;99.90
22167;DHT22;11249;52.468;13.776;2022-09-13T11:44:47;20.00;99.90
22167;DHT22;11249;52.468;13.776;2022-09-13T11:47:32;20.00;99.90
22167;DHT22;11249;52.468;13.776;2022-09-13T11:55:31;20.20;99.90
22167;DHT22;11249;52.468;13.776;2022-09-13T11:58:02;20.10;99.90
22167;DHT22;11249;52.468;13.776;2022-09-13T12:00:41;20.10;99.90
22167;DHT22;11249;52.468;13.776;2022-09-13T12:05:54;19.90;99.90
22167;DHT22;11249;52.468;13.776;2022-09-13T12:08:31;19.70;99.90
22167;DHT22;11249;52.468;13.776;2022-09-13T12:11:24;19.60;99.90
22167;DHT22;11249;52.468;13.776;2022-09-13T12:13:56;19.40;99.90
22167;DHT22;11249;52.468;13.776;2022-09-13T12:16:38;19.30;99.90
22167;DHT22;11249;52.468;13.776;2022-09-13T12:19:28;19.20;99.90
22167;DHT22;11249;52.468;13.776;2022-09-13T12:22:00;19.20;99.90
22167;DHT22;11249;52.468;13.776;2022-09-13T12:24:54;19.20;99.90
22167;DHT22;11249;52.468;13.776;2022-09-13T12:27:36;19.30;99.90
22167;DHT22;11249;52.468;13.776;2022-09-13T12:30:21;19.30;99.90
22167;DHT22;11249;52.468;13.776;2022-09-13T12:32:49;19.30;99.90
22167;DHT22;11249;52.468;13.776;2022-09-13T12:35:25;19.10;99.90
22167;DHT22;11249;52.468;13.776;2022-09-13T12:38:01;19.10;99.90
22167;DHT22;11249;52.468;13.776;2022-09-13T12:43:57;19.20;99.90
22167;DHT22;11249;52.468;13.776;2022-09-13T12:49:30;19.30;99.90
22167;DHT22;11249;52.468;13.776;2022-09-13T12:52:10;19.30;99.90
22167;DHT22;11249;52.468;13.776;2022-09-13T12:58:15;19.20;99.90
22167;DHT22;11249;52.468;13.776;2022-09-13T13:01:07;19.20;99.90
22167;DHT22;11249;52.468;13.776;2022-09-13T13:03:47;19.20;99.90
22167;DHT22;11249;52.468;13.776;2022-09-13T13:06:26;19.30;99.90
22167;DHT22;11249;52.468;13.776;2022-09-13T13:08:57;19.40;99.90
22167;DHT22;11249;52.468;13.776;2022-09-13T13:11:27;19.50;99.90
22167;DHT22;11249;52.468;13.776;2022-09-13T13:13:59;19.60;99.90
22167;DHT22;11249;52.468;13.776;2022-09-13T13:16:37;19.60;99.90
22167;DHT22;11249;52.468;13.776;2022-09-13T13:19:27;19.70;99.90
22167;DHT22;11249;52.468;13.776;2022-09-13T13:21:54;19.70;99.90
22167;DHT22;11249;52.468;13.776;2022-09-13T13:26:50;19.60;99.90
22167;DHT22;11249;52.468;13.776;2022-09-13T13:29:29;19.70;99.90
22167;DHT22;11249;52.468;13.776;2022-09-13T13:34:27;19.60;99.90
22167;DHT22;11249;52.468;13.776;2022-09-13T13:42:23;19.60;99.90
22167;DHT22;11249;52.468;13.776;2022-09-13T13:49:57;19.30;99.90
22167;DHT22;11249;52.468;13.776;2022-09-13T13:52:50;19.30;99.90
22167;DHT22;11249;52.468;13.776;2022-09-13T13:55:45;19.30;99.90
22167;DHT22;11249;52.468;13.776;2022-09-13T13:58:25;19.40;99.90
22167;DHT22;11249;52.468;13.776;2022-09-13T14:00:53;19.30;99.90
22167;DHT22;11249;52.468;13.776;2022-09-13T14:07:32;19.30;99.90
22167;DHT22;11249;52.468;13.776;2022-09-13T14:10:17;19.40;99.90
22167;DHT22;11249;52.468;13.776;2022-09-13T14:13:17;19.50;99.90
22167;DHT22;11249;52.468;13.776;2022-09-13T14:21:41;19.30;99.90
22167;DHT22;11249;52.468;13.776;2022-09-13T14:24:19;19.30;99.90
22167;DHT22;11249;52.468;13.776;2022-09-13T14:26:48;19.60;99.90
22167;DHT22;11249;52.468;13.776;2022-09-13T14:29:18;19.90;99.90
22167;DHT22;11249;52.468;13.776;2022-09-13T14:31:47;20.10;99.90
22167;DHT22;11249;52.468;13.776;2022-09-13T14:34:24;20.20;99.90
22167;DHT22;11249;52.468;13.776;2022-09-13T14:36:55;20.30;99.90
22167;DHT22;11249;52.468;13.776;2022-09-13T14:39:23;20.40;99.90
22167;DHT22;11249;52.468;13.776;2022-09-13T14:42:13;20.60;99.90
22167;DHT22;11249;52.468;13.776;2022-09-13T14:44:44;20.70;99.90
22167;DHT22;11249;52.468;13.776;2022-09-13T14:47:20;20.60;99.90
22167;DHT22;11249;52.468;13.776;2022-09-13T14:49:53;20.70;99.90
22167;DHT22;11249;52.468;13.776;2022-09-13T14:52:29;20.70;99.90
22167;DHT22;11249;52.468;13.776;2022-09-13T14:55:00;20.70;99.90
22167;DHT22;11249;52.468;13.776;2022-09-13T14:57:33;20.70;99.90
22167;DHT22;11249;52.468;13.776;2022-09-13T15:02:37;20.40;99.90
22167;DHT22;11249;52.468;13.776;2022-09-13T15:05:11;20.30;99.90
22167;DHT22;11249;52.468;13.776;2022-09-13T15:07:39;20.10;99.90
22167;DHT22;11249;52.468;13.776;2022-09-13T15:12:55;20.00;99.90
22167;DHT22;11249;52.468;13.776;2022-09-13T15:18:05;19.90;99.90
22167;DHT22;11249;52.468;13.776;2022-09-13T15:20:55;19.90;99.90
22167;DHT22;11249;52.468;13.776;2022-09-13T15:23:32;19.90;99.90
22167;DHT22;11249;52.468;13.776;2022-09-13T15:26:12;20.00;99.90
22167;DHT22;11249;52.468;13.776;2022-09-13T15:34:28;20.40;99.90
22167;DHT22;11249;52.468;13.776;2022-09-13T15:37:12;20.60;99.90
22167;DHT22;11249;52.468;13.776;2022-09-13T15:40:00;20.80;99.90
22167;DHT22;11249;52.468;13.776;2022-09-13T15:42:27;20.70;99.90
22167;DHT22;11249;52.468;13.776;2022-09-13T15:44:54;20.70;99.90
22167;DHT22;11249;52.468;13.776;2022-09-13T15:47:22;20.70;99.90
22167;DHT22;11249;52.468;13.776;2022-09-13T15:49:49;20.70;99.90
22167;DHT22;11249;52.468;13.776;2022-09-13T15:52:18;20.70;99.90
22167;DHT22;11249;52.468;13.776;2022-09-13T15:54:47;20.90;99.90
22167;DHT22;11249;52.468;13.776;2022-09-13T15:57:23;21.00;99.90
22167;DHT22;11249;52.468;13.776;2022-09-13T15:59:50;21.20;99.90
22167;DHT22;11249;52.468;13.776;2022-09-13T16:02:21;21.40;99.90
22167;DHT22;11249;52.468;13.776;2022-09-13T16:04:48;21.50;99.90
22167;DHT22;11249;52.468;13.776;2022-09-13T16:07:16;21.60;99.90
22167;DHT22;11249;52.468;13.776;2022-09-13T16:09:45;21.70;99.90
22167;DHT22;11249;52.468;13.776;2022-09-13T16:12:11;21.60;99.90
22167;DHT22;11249;52.468;13.776;2022-09-13T16:14:38;21.40;99.90
22167;DHT22;11249;52.468;13.776;2022-09-13T16:17:15;21.20;99.90
22167;DHT22;11249;52.468;13.776;2022-09-13T16:19:44;21.30;99.90
22167;DHT22;11249;52.468;13.776;2022-09-13T16:22:11;21.10;99.90
22167;DHT22;11249;52.468;13.776;2022-09-13T16:24:38;20.90;99.90
22167;DHT22;11249;52.468;13.776;2022-09-13T16:27:05;20.80;99.90
22167;DHT22;11249;52.468;13.776;2022-09-13T16:29:32;20.70;99.90
22167;DHT22;11249;52.468;13.776;2022-09-13T16:31:59;20.60;99.90
22167;DHT22;11249;52.468;13.776;2022-09-13T16:34:27;20.50;99.90
22167;DHT22;11249;52.468;13.776;2022-09-13T16:36:53;20.20;99.90
22167;DHT22;11249;52.468;13.776;2022-09-13T16:39:20;20.10;99.90
22167;DHT22;11249;52.468;13.776;2022-09-13T16:41:47;19.90;99.90
22167;DHT22;11249;52.468;13.776;2022-09-13T16:44:14;19.90;99.90
22167;DHT22;11249;52.468;13.776;2022-09-13T16:46:41;19.80;99.90
22167;DHT22;11249;52.468;13.776;2022-09-13T16:49:08;19.80;99.90
22167;DHT22;11249;52.468;13.776;2022-09-13T16:51:36;19.70;99.90
22167;DHT22;11249;52.468;13.776;2022-09-13T16:54:03;19.70;99.90
22167;DHT22;11249;52.468;13.776;2022-09-13T16:56:30;19.60;99.90
22167;DHT22;11249;52.468;13.776;2022-09-13T16:58:57;19.60;99.90
22167;DHT22;11249;52.468;13.776;2022-09-13T17:01:26;19.60;99.90
22167;DHT22;11249;52.468;13.776;2022-09-13T17:03:54;19.60;99.90
22167;DHT22;11249;52.468;13.776;2022-09-13T17:06:22;19.50;99.90
22167;DHT22;11249;52.468;13.776;2022-09-13T17:08:59;19.40;99.90
22167;DHT22;11249;52.468;13.776;2022-09-13T17:11:31;19.30;99.90
22167;DHT22;11249;52.468;13.776;2022-09-13T17:14:00;19.20;99.90
22167;DHT22;11249;52.468;13.776;2022-09-13T17:16:36;19.10;99.90
22167;DHT22;11249;52.468;13.776;2022-09-13T17:19:06;18.90;99.90
22167;DHT22;11249;52.468;13.776;2022-09-13T17:21:33;18.90;99.90
22167;DHT22;11249;52.468;13.776;2022-09-13T17:24:00;18.80;99.90
22167;DHT22;11249;52.468;13.776;2022-09-13T17:26:27;18.70;99.90
22167;DHT22;11249;52.468;13.776;2022-09-13T17:28:54;18.60;99.90
22167;DHT22;11249;52.468;13.776;2022-09-13T17:31:20;18.50;99.90
22167;DHT22;11249;52.468;13.776;2022-09-13T17:33:47;18.40;99.90
22167;DHT22;11249;52.468;13.776;2022-09-13T17:36:15;18.30;99.90
22167;DHT22;11249;52.468;13.776;2022-09-13T17:38:42;18.30;99.90
22167;DHT22;11249;52.468;13.776;2022-09-13T17:41:15;18.20;99.90
22167;DHT22;11249;52.468;13.776;2022-09-13T17:43:43;18.20;99.90
22167;DHT22;11249;52.468;13.776;2022-09-13T17:46:13;18.00;99.90
22167;DHT22;11249;52.468;13.776;2022-09-13T17:48:41;17.90;99.90
22167;DHT22;11249;52.468;13.776;2022-09-13T17:51:13;17.90;99.90
22167;DHT22;11249;52.468;13.776;2022-09-13T17:53:42;17.80;99.90
22167;DHT22;11249;52.468;13.776;2022-09-13T17:56:09;17.70;99.90
22167;DHT22;11249;52.468;13.776;2022-09-13T17:58:36;17.70;99.90
22167;DHT22;11249;52.468;13.776;2022-09-13T18:01:08;17.60;99.90
22167;DHT22;11249;52.468;13.776;2022-09-13T18:03:35;17.50;99.90
22167;DHT22;11249;52.468;13.776;2022-09-13T18:06:06;17.40;99.90